Airfield :
LOGIN :

Register | Disclaimer

   EN    FR    IT 

 










Legend :    VFR   Marginal VFR   IFR   Intensive IFR   Very Intensive IFR
Visi :
Ceiling :
>= 8 km
>= 3000ft
5 to 8 km
1000 to 3000 ft
1500m to 5 km
500 to 1000 ft
800 to 1500m
200 to 500 ft
< 800m
< 200 ft
Symbols :   Thunderstorms  Fog  Heavy snow  Heavy precipitations  Wind > 20 kt
SIGMETs :     Misc.  Thunderstorms  Icing  Turbulence  Mountain Waves  Volcanic Ashes






- Airport Elevation : 52 ft
- IATA code : RNN


EKRN - Bornholm Ronne

CURRENT METAR :
  • 010720Z AUTO 01005KT 9999 BKN021/// M02/M04 Q1004

EXPIRED METARs :
  • 010650Z AUTO 35003KT 9999 BKN019/// M04/M05 Q1003
  • 010620Z AUTO 35003KT 9999 SCT021/// M05/M06 Q1003
  • 010550Z AUTO 33003KT 9999 FEW022/// M05/M06 Q1003
  • 010520Z AUTO 36003KT 9999 BKN018/// M05/M06 Q1003
  • 010450Z AUTO 33002KT 2700 BR FEW015/// FEW017/// M05/M06 Q1003
  • 010420Z AUTO 36004KT 9999 FEW016/// M05/M06 Q1003
  • 010350Z AUTO 36005KT 9999 FEW110/// M05/M06 Q1003
  • 010320Z AUTO 01005KT 9999 NCD M03/M04 Q1003
  • 010250Z AUTO 35004KT 9999 NCD M02/M04 Q1003

TAF TAF EKRN
Valid from the 01 at 06:00 until the 01 at 15:00 UTC


010514Z 0106/0115 01006KT 9999 SCT008 BKN040
TEMPO 0106/0110 2000 BR BKN012
TEMPO 0112/0115 2000 -SN BKN008



MET'MAP, your aeronautical weather chart ! - Copyright ORBIFLY December 2007 - Disclaimer

ORBIFLY MET'MAP TEAM :

Programming & Development : Alexandra Zaïnal
Original concept : Baudouin d'Aumeries
Technical & hardware support : Manuel Goepfert
Assistance : Marc-Olivier Méhu




SOURCES & CREDITS :

   NOAA